Time;durP1;ratioP1;P1;durP2;ratioP2;P2;SDS_P1;SDS_P2;PMS_P1;PMS_P2;Temp;Humidity;BMP_temperature;BMP_pressure;BME280_temperature;BME280_humidity;BME280_pressure;Samples;Min_cycle;Max_cycle;Signal;HPM_P1;HPM_P2
2022/12/02 00:02:30;;;;;;;92.23;38.17;;;5.70;99.90;;;;;;5048568;28;20217;-68
2022/12/02 00:05:28;;;;;;;90.20;35.10;;;5.70;99.90;;;;;;5045817;28;20207;-70
2022/12/02 00:08:10;;;;;;;106.83;38.73;;;5.70;99.90;;;;;;5038389;28;20582;-69
2022/12/02 00:10:37;;;;;;;94.63;36.67;;;5.60;99.90;;;;;;5046080;28;20216;-70
2022/12/02 00:13:23;;;;;;;89.23;34.60;;;5.60;99.90;;;;;;5039060;28;20260;-70
2022/12/02 00:15:56;;;;;;;94.70;34.97;;;5.60;99.90;;;;;;5049219;28;20292;-69
2022/12/02 00:18:24;;;;;;;90.17;34.27;;;5.60;99.90;;;;;;5038357;28;20208;-70
2022/12/02 00:20:51;;;;;;;88.27;33.17;;;5.60;99.90;;;;;;5040847;28;20243;-70
2022/12/02 00:23:18;;;;;;;87.33;34.07;;;5.60;99.90;;;;;;5041105;28;20200;-70
2022/12/02 00:25:48;;;;;;;85.20;31.57;;;5.50;99.90;;;;;;5046471;28;20361;-69
2022/12/02 00:28:15;;;;;;;84.83;32.77;;;5.60;99.90;;;;;;5042119;28;20309;-70
2022/12/02 00:30:43;;;;;;;85.20;35.10;;;5.60;99.90;;;;;;5040275;28;20244;-69
2022/12/02 00:33:10;;;;;;;86.33;32.83;;;5.60;99.90;;;;;;5047727;28;20208;-70
2022/12/02 00:35:37;;;;;;;85.20;33.20;;;5.50;99.90;;;;;;5045080;28;20799;-70
2022/12/02 00:38:04;;;;;;;92.23;35.87;;;5.50;99.90;;;;;;5047183;28;20226;-68
2022/12/02 00:40:31;;;;;;;90.47;34.17;;;5.50;99.90;;;;;;5022115;28;20222;-69
2022/12/02 00:46:30;;;;;;;89.73;34.10;;;5.50;99.90;;;;;;5031817;28;20253;-71
2022/12/02 00:48:33;;;;;;;85.33;31.43;;;5.40;99.90;;;;;;5045655;28;20209;-70
2022/12/02 00:51:00;;;;;;;88.37;32.50;;;5.40;99.90;;;;;;5044785;28;20468;-69
2022/12/02 00:53:27;;;;;;;90.83;34.07;;;5.40;99.90;;;;;;5042153;28;20315;-69
2022/12/02 00:55:54;;;;;;;91.63;32.87;;;5.30;99.90;;;;;;5041624;28;20687;-68
2022/12/02 00:58:23;;;;;;;86.87;32.10;;;5.30;99.90;;;;;;5024952;28;20207;-69
2022/12/02 01:00:50;;;;;;;92.40;33.57;;;5.30;99.90;;;;;;5040125;28;20238;-69
2022/12/02 01:03:17;;;;;;;91.73;34.77;;;5.20;99.90;;;;;;5042160;28;20214;-70
2022/12/02 01:05:44;;;;;;;89.43;33.27;;;5.20;99.90;;;;;;5043910;28;20299;-69
2022/12/02 01:08:10;;;;;;;92.07;32.90;;;5.20;99.90;;;;;;5035648;28;20240;-68
2022/12/02 01:10:37;;;;;;;91.30;33.80;;;5.00;99.90;;;;;;5046197;28;20201;-69
2022/12/02 01:13:04;;;;;;;88.17;32.97;;;4.90;99.90;;;;;;5049753;28;20212;-69
2022/12/02 01:15:31;;;;;;;89.60;31.77;;;4.90;99.90;;;;;;5045840;28;20209;-69
2022/12/02 01:17:59;;;;;;;94.70;35.03;;;4.90;99.90;;;;;;5044319;28;20307;-69
2022/12/02 01:20:26;;;;;;;93.40;33.53;;;4.80;99.90;;;;;;5044065;28;20199;-69
2022/12/02 01:22:55;;;;;;;91.30;32.80;;;4.80;99.90;;;;;;5029859;28;20559;-69
2022/12/02 01:25:22;;;;;;;88.73;33.80;;;4.90;99.90;;;;;;5043231;28;20570;-69
2022/12/02 01:27:49;;;;;;;88.93;32.70;;;4.80;99.90;;;;;;5043073;28;20633;-70
2022/12/02 01:30:15;;;;;;;97.00;32.57;;;4.90;99.90;;;;;;5042421;28;20272;-69
2022/12/02 01:32:42;;;;;;;99.50;34.37;;;4.90;99.90;;;;;;5019378;28;20211;-69
2022/12/02 01:35:09;;;;;;;96.83;34.13;;;5.00;99.90;;;;;;5041832;28;20295;-69
2022/12/02 01:37:36;;;;;;;87.40;33.53;;;5.00;99.90;;;;;;5037919;28;20318;-68
2022/12/02 01:40:05;;;;;;;98.03;34.80;;;5.00;99.90;;;;;;5038725;28;20254;-69
2022/12/02 01:42:32;;;;;;;94.20;33.23;;;4.90;99.90;;;;;;5038971;28;20724;-68
2022/12/02 01:44:59;;;;;;;92.50;32.17;;;5.00;99.90;;;;;;5046909;28;20304;-70
2022/12/02 01:47:26;;;;;;;95.33;33.80;;;5.00;99.90;;;;;;5042289;28;20652;-69
2022/12/02 01:49:53;;;;;;;89.10;33.77;;;5.00;99.90;;;;;;5041836;28;20622;-69
2022/12/02 01:52:21;;;;;;;100.63;32.77;;;5.00;99.90;;;;;;5031885;28;20786;-69
2022/12/02 01:54:50;;;;;;;94.97;32.43;;;5.10;99.90;;;;;;5041110;28;20296;-69
2022/12/02 01:57:21;;;;;;;83.63;34.00;;;5.10;99.90;;;;;;5035584;28;20218;-69
2022/12/02 01:59:48;;;;;;;85.93;31.80;;;5.20;99.90;;;;;;5039271;28;20321;-68
2022/12/02 02:02:24;;;;;;;85.60;31.40;;;5.20;99.90;;;;;;5040549;28;20205;-70
2022/12/02 02:04:54;;;;;;;84.33;31.87;;;5.20;99.90;;;;;;5042264;28;20649;-70
2022/12/02 02:07:21;;;;;;;82.30;30.93;;;5.20;99.90;;;;;;5041375;28;20319;-69
2022/12/02 02:09:48;;;;;;;89.77;33.50;;;5.30;99.90;;;;;;5037911;28;20207;-69
2022/12/02 02:12:15;;;;;;;88.57;32.17;;;5.30;99.90;;;;;;5048163;28;20316;-69
2022/12/02 02:14:42;;;;;;;87.40;31.00;;;5.30;99.90;;;;;;5043410;28;20222;-70
2022/12/02 02:17:09;;;;;;;80.97;29.97;;;5.30;99.90;;;;;;5039943;28;20243;-69
2022/12/02 02:19:36;;;;;;;92.00;31.17;;;5.30;99.90;;;;;;5037145;28;20198;-69
2022/12/02 02:22:09;;;;;;;82.40;29.33;;;5.20;99.90;;;;;;5036755;28;20280;-69
2022/12/02 02:24:35;;;;;;;77.23;27.97;;;5.20;99.90;;;;;;5036153;28;20595;-71
2022/12/02 02:27:02;;;;;;;78.60;28.63;;;5.20;99.90;;;;;;5035367;28;20228;-68
2022/12/02 02:29:29;;;;;;;76.67;29.50;;;5.30;99.90;;;;;;5043396;28;20632;-68
2022/12/02 02:31:57;;;;;;;81.13;27.70;;;5.30;99.90;;;;;;5039364;28;20222;-69
2022/12/02 02:34:23;;;;;;;74.73;27.67;;;5.30;99.90;;;;;;5039421;28;20303;-69
2022/12/02 02:36:50;;;;;;;73.73;27.73;;;5.20;99.90;;;;;;5045118;28;20211;-69
2022/12/02 02:39:17;;;;;;;73.90;27.37;;;5.20;99.90;;;;;;5040502;28;20212;-69
2022/12/02 02:41:44;;;;;;;77.43;28.17;;;5.30;99.90;;;;;;5037152;28;20223;-70
2022/12/02 02:44:11;;;;;;;68.90;26.23;;;5.20;99.90;;;;;;5043009;28;20744;-70
2022/12/02 02:46:38;;;;;;;63.30;25.33;;;5.20;99.90;;;;;;5036131;28;20229;-70
2022/12/02 02:49:05;;;;;;;71.50;26.47;;;5.20;99.90;;;;;;5043830;28;20241;-69
2022/12/02 02:51:32;;;;;;;70.63;26.97;;;5.20;99.90;;;;;;5037704;28;20206;-70
2022/12/02 02:53:59;;;;;;;73.67;26.20;;;5.20;99.90;;;;;;5043942;28;20256;-68
2022/12/02 02:56:26;;;;;;;67.73;25.57;;;5.20;99.90;;;;;;5026850;28;20206;-69
2022/12/02 02:58:53;;;;;;;62.67;25.03;;;5.20;99.90;;;;;;5040705;28;20724;-69
2022/12/02 03:01:24;;;;;;;70.87;26.97;;;5.20;99.90;;;;;;5037171;28;20308;-69
2022/12/02 03:03:56;;;;;;;66.83;24.57;;;5.20;99.90;;;;;;5044012;28;20205;-68
2022/12/02 03:06:25;;;;;;;71.57;26.63;;;5.20;99.90;;;;;;5038311;28;20198;-69
2022/12/02 03:08:53;;;;;;;62.63;23.13;;;5.20;99.90;;;;;;5040565;28;20308;-69
2022/12/02 03:11:20;;;;;;;65.60;24.40;;;5.20;99.90;;;;;;5043123;28;20848;-69
2022/12/02 03:13:49;;;;;;;63.50;24.43;;;5.20;99.90;;;;;;5043421;28;20387;-69
2022/12/02 03:16:19;;;;;;;65.40;23.47;;;5.20;99.90;;;;;;5035609;28;20280;-68
2022/12/02 03:18:47;;;;;;;65.87;23.47;;;5.10;99.90;;;;;;5039575;28;20484;-69
2022/12/02 03:21:16;;;;;;;64.40;23.60;;;5.10;99.90;;;;;;5035992;28;20216;-69
2022/12/02 03:23:44;;;;;;;57.37;22.27;;;5.10;99.90;;;;;;5045681;28;20215;-68
2022/12/02 03:26:12;;;;;;;63.57;23.40;;;5.10;99.90;;;;;;5053165;28;20204;-68
2022/12/02 03:28:39;;;;;;;62.67;23.90;;;5.10;99.90;;;;;;5048375;28;20229;-69
2022/12/02 03:31:07;;;;;;;66.47;24.10;;;5.10;99.90;;;;;;5042347;28;20287;-69
2022/12/02 03:33:35;;;;;;;59.93;22.27;;;5.10;99.90;;;;;;5043235;28;20255;-68
2022/12/02 03:36:01;;;;;;;61.70;23.93;;;5.10;99.90;;;;;;5042911;28;20203;-70
2022/12/02 03:38:31;;;;;;;62.00;22.77;;;5.10;99.90;;;;;;5045844;28;20241;-68
2022/12/02 03:40:59;;;;;;;67.97;23.77;;;5.10;99.90;;;;;;5045314;28;20310;-70
2022/12/02 03:43:26;;;;;;;61.17;24.10;;;5.20;99.90;;;;;;5040839;28;20214;-69
2022/12/02 03:45:54;;;;;;;63.23;24.93;;;5.00;99.90;;;;;;5042018;28;20206;-68
2022/12/02 03:48:22;;;;;;;65.53;25.90;;;4.90;99.90;;;;;;5045730;28;20224;-69
2022/12/02 03:50:50;;;;;;;65.97;24.70;;;4.90;99.90;;;;;;5042411;28;20225;-69
2022/12/02 03:53:17;;;;;;;72.77;25.90;;;4.90;99.90;;;;;;5048804;28;20622;-70
2022/12/02 03:55:44;;;;;;;68.97;23.07;;;4.90;99.90;;;;;;5045057;28;20746;-68
2022/12/02 03:58:11;;;;;;;72.50;26.60;;;4.80;99.90;;;;;;5048307;28;20310;-69
2022/12/02 04:00:37;;;;;;;66.40;24.17;;;4.80;99.90;;;;;;5040195;28;20279;-69
2022/12/02 04:03:05;;;;;;;65.53;22.73;;;4.80;99.90;;;;;;5048252;28;20284;-69
2022/12/02 04:05:32;;;;;;;60.93;23.40;;;4.70;99.90;;;;;;5037294;28;20268;-69
2022/12/02 04:07:59;;;;;;;65.87;22.80;;;4.70;99.90;;;;;;5044140;28;20788;-69
2022/12/02 04:10:25;;;;;;;63.53;22.07;;;4.70;99.90;;;;;;5048034;28;20209;-67
2022/12/02 04:12:52;;;;;;;53.77;21.03;;;4.60;99.90;;;;;;5043715;28;20317;-69
2022/12/02 04:15:19;;;;;;;57.03;22.70;;;4.60;99.90;;;;;;5046415;28;20230;-71
2022/12/02 04:17:46;;;;;;;51.57;21.80;;;4.60;99.90;;;;;;5042546;28;20637;-70
2022/12/02 04:20:12;;;;;;;54.93;21.83;;;4.60;99.90;;;;;;5041325;28;20202;-69
2022/12/02 04:22:40;;;;;;;57.20;21.67;;;4.60;99.90;;;;;;5043550;28;20208;-69
2022/12/02 04:25:07;;;;;;;57.80;23.30;;;4.50;99.90;;;;;;5048501;28;20671;-68
2022/12/02 04:27:34;;;;;;;56.20;24.13;;;4.50;99.90;;;;;;5042082;28;20321;-70
2022/12/02 04:30:01;;;;;;;55.87;22.23;;;4.50;99.90;;;;;;5040630;28;20215;-70
2022/12/02 04:32:28;;;;;;;59.13;22.73;;;4.40;99.90;;;;;;5044438;28;20275;-69
2022/12/02 04:34:54;;;;;;;56.83;22.93;;;4.50;99.90;;;;;;5044000;28;20548;-69
2022/12/02 04:37:21;;;;;;;59.77;22.77;;;4.50;99.90;;;;;;5036549;28;20229;-69
2022/12/02 04:39:48;;;;;;;58.90;21.97;;;4.50;99.90;;;;;;5021436;28;20298;-70
2022/12/02 04:42:15;;;;;;;52.87;21.30;;;4.50;99.90;;;;;;5010691;28;20272;-70
2022/12/02 04:44:41;;;;;;;61.50;22.43;;;4.50;99.90;;;;;;5025077;28;20197;-69
2022/12/02 04:47:08;;;;;;;54.77;21.57;;;4.60;99.90;;;;;;5022424;28;20587;-69
2022/12/02 04:49:35;;;;;;;56.13;21.00;;;4.50;99.90;;;;;;5019310;28;20206;-70
2022/12/02 04:52:02;;;;;;;54.60;21.30;;;4.50;99.90;;;;;;5022614;28;20598;-70
2022/12/02 04:54:28;;;;;;;59.70;22.33;;;4.50;99.90;;;;;;5023189;28;20203;-70
2022/12/02 04:56:55;;;;;;;55.90;22.37;;;4.50;99.90;;;;;;5022125;28;20692;-69
2022/12/02 04:59:22;;;;;;;56.70;22.67;;;4.50;99.90;;;;;;5021156;28;20223;-69
2022/12/02 05:01:49;;;;;;;53.77;21.67;;;4.50;99.90;;;;;;5024370;28;20212;-69
2022/12/02 05:04:15;;;;;;;54.70;21.53;;;4.40;99.90;;;;;;5021143;28;20212;-69
2022/12/02 05:06:42;;;;;;;56.47;21.93;;;4.50;99.90;;;;;;5024051;28;20202;-71
2022/12/02 05:09:09;;;;;;;57.37;21.37;;;4.40;99.90;;;;;;5018430;28;20285;-68
2022/12/02 05:11:35;;;;;;;57.77;22.80;;;4.40;99.90;;;;;;5025129;28;20217;-69
2022/12/02 05:14:02;;;;;;;53.40;22.80;;;4.40;99.90;;;;;;5012322;28;20301;-69
2022/12/02 05:16:29;;;;;;;62.90;22.30;;;4.40;99.90;;;;;;5006773;28;20202;-69
2022/12/02 05:18:56;;;;;;;54.10;22.30;;;4.30;99.90;;;;;;5020790;28;20210;-69
2022/12/02 05:21:22;;;;;;;54.00;22.03;;;4.30;99.90;;;;;;5023932;28;20665;-70
2022/12/02 05:23:49;;;;;;;53.27;22.00;;;4.30;99.90;;;;;;5011840;28;20309;-70
2022/12/02 05:26:16;;;;;;;53.03;20.93;;;4.30;99.90;;;;;;5025256;28;20301;-68
2022/12/02 05:28:43;;;;;;;56.30;23.17;;;4.30;99.90;;;;;;5030310;28;20780;-69
2022/12/02 05:31:13;;;;;;;60.97;23.73;;;4.30;99.90;;;;;;5015646;28;20803;-70
2022/12/02 05:33:39;;;;;;;59.57;23.53;;;4.30;99.90;;;;;;5019088;28;20210;-69
2022/12/02 05:36:09;;;;;;;61.63;23.43;;;4.30;99.90;;;;;;5019513;28;20214;-68
2022/12/02 05:38:36;;;;;;;58.73;23.00;;;4.30;99.90;;;;;;5023631;28;20231;-69
2022/12/02 05:41:02;;;;;;;57.20;22.13;;;4.20;99.90;;;;;;5043645;28;20198;-69
2022/12/02 05:43:38;;;;;;;57.20;21.87;;;4.20;99.90;;;;;;5044287;28;20329;-69
2022/12/02 05:46:16;;;;;;;59.53;21.63;;;4.20;99.90;;;;;;5040975;28;20288;-69
2022/12/02 05:48:44;;;;;;;57.00;22.23;;;4.20;99.90;;;;;;5042462;28;20236;-69
2022/12/02 05:51:13;;;;;;;54.53;22.53;;;4.20;99.90;;;;;;5030096;28;20229;-68
2022/12/02 05:53:42;;;;;;;56.00;22.67;;;4.20;99.90;;;;;;5043133;28;20300;-69
2022/12/02 05:56:29;;;;;;;59.77;22.10;;;4.10;99.90;;;;;;5037158;28;20206;-70
2022/12/02 05:59:01;;;;;;;52.23;21.23;;;4.10;99.90;;;;;;5034886;28;20211;-70
2022/12/02 06:01:34;;;;;;;56.33;22.77;;;4.10;99.90;;;;;;5038960;28;20194;-69
2022/12/02 06:04:02;;;;;;;55.13;21.53;;;4.10;99.90;;;;;;5039798;28;20245;-69
2022/12/02 06:06:31;;;;;;;57.37;22.23;;;4.10;99.90;;;;;;5038926;28;20686;-70
2022/12/02 06:08:59;;;;;;;57.77;22.50;;;4.10;99.90;;;;;;5041485;28;20265;-68
2022/12/02 06:11:37;;;;;;;50.60;20.43;;;4.10;99.90;;;;;;5048934;28;20196;-70
2022/12/02 06:14:19;;;;;;;57.23;22.83;;;4.10;99.90;;;;;;5046347;28;20620;-69
2022/12/02 06:16:50;;;;;;;54.53;22.53;;;4.10;99.90;;;;;;5038092;28;20701;-70
2022/12/02 06:19:25;;;;;;;57.87;21.67;;;4.10;99.90;;;;;;5041614;28;20203;-70
2022/12/02 06:21:53;;;;;;;52.43;22.73;;;4.10;99.90;;;;;;5040115;28;20293;-70
2022/12/02 06:24:26;;;;;;;54.47;21.17;;;4.00;99.90;;;;;;5036452;28;20205;-69
2022/12/02 06:26:56;;;;;;;53.27;21.10;;;4.10;99.90;;;;;;5037120;28;20584;-69
2022/12/02 06:29:24;;;;;;;51.93;21.03;;;4.10;99.90;;;;;;5043294;28;20261;-70
2022/12/02 06:31:51;;;;;;;57.80;22.53;;;4.10;99.90;;;;;;5039124;28;20213;-69
2022/12/02 06:34:29;;;;;;;47.83;20.30;;;4.00;99.90;;;;;;5038902;28;20698;-69
2022/12/02 06:37:21;;;;;;;53.43;21.47;;;4.00;99.90;;;;;;5040107;28;20347;-70
2022/12/02 06:39:56;;;;;;;57.30;22.33;;;4.00;99.90;;;;;;5038225;28;20208;-69
2022/12/02 06:42:43;;;;;;;52.73;21.60;;;4.10;99.90;;;;;;5034821;28;20702;-68
2022/12/02 06:45:12;;;;;;;50.43;21.73;;;4.10;99.90;;;;;;5035955;28;20216;-69
2022/12/02 06:47:46;;;;;;;58.97;22.30;;;4.00;99.90;;;;;;5038626;28;20303;-69
2022/12/02 06:50:27;;;;;;;57.07;23.30;;;4.10;99.90;;;;;;5040872;28;20230;-69
2022/12/02 06:53:09;;;;;;;58.00;22.27;;;4.10;99.90;;;;;;5037508;28;20935;-70
2022/12/02 06:55:37;;;;;;;61.03;23.60;;;4.00;99.90;;;;;;5054479;28;20676;-69
2022/12/02 06:58:16;;;;;;;61.83;24.07;;;4.00;99.90;;;;;;5034743;28;20291;-69
2022/12/02 07:00:43;;;;;;;67.95;27.80;;;4.10;99.90;;;;;;5020164;28;20445;-68
2022/12/02 07:03:21;;;;;;;69.00;28.00;;;4.10;99.90;;;;;;5039026;28;20448;-70
2022/12/02 07:05:47;;;;;;;67.57;26.87;;;4.20;99.90;;;;;;5032667;28;20218;-69
2022/12/02 07:08:14;;;;;;;64.63;25.67;;;4.20;99.90;;;;;;5038384;28;20266;-68
2022/12/02 07:10:41;;;;;;;68.23;26.13;;;4.10;99.90;;;;;;5038472;28;20199;-69
2022/12/02 07:13:15;;;;;;;64.07;26.00;;;4.10;99.90;;;;;;5026156;28;20229;-68
2022/12/02 07:15:41;;;;;;;67.13;25.70;;;4.10;99.90;;;;;;5039383;28;20209;-68
2022/12/02 07:18:17;;;;;;;66.00;25.43;;;4.10;99.90;;;;;;5037378;28;20277;-68
2022/12/02 07:20:45;;;;;;;64.03;24.50;;;4.20;99.90;;;;;;5039079;28;20745;-68
2022/12/02 07:23:23;;;;;;;65.27;25.17;;;4.10;99.90;;;;;;5041175;28;20606;-69
2022/12/02 07:25:51;;;;;;;62.70;24.97;;;4.10;99.90;;;;;;5039009;28;20293;-68
2022/12/02 07:28:27;;;;;;;66.03;26.00;;;4.10;99.90;;;;;;5037030;28;20769;-68
2022/12/02 07:30:57;;;;;;;67.47;25.00;;;4.00;99.90;;;;;;5042896;28;20212;-68
2022/12/02 07:33:24;;;;;;;66.43;25.50;;;4.10;99.90;;;;;;5022041;28;20218;-68
2022/12/02 07:35:51;;;;;;;64.83;24.43;;;4.10;99.90;;;;;;5036425;28;20601;-69
2022/12/02 07:38:18;;;;;;;66.07;26.27;;;4.10;99.90;;;;;;5046840;28;20921;-69
2022/12/02 07:41:05;;;;;;;68.53;26.03;;;4.00;99.90;;;;;;5051321;28;20210;-69
2022/12/02 07:43:32;;;;;;;61.73;24.77;;;4.10;99.90;;;;;;5042588;28;20246;-69
2022/12/02 07:45:59;;;;;;;62.17;23.77;;;4.10;99.90;;;;;;5035438;28;20639;-71
2022/12/02 07:48:26;;;;;;;68.50;26.47;;;4.10;99.90;;;;;;5036197;28;20355;-69
2022/12/02 07:50:56;;;;;;;67.27;24.57;;;4.10;99.90;;;;;;5035579;28;20247;-68
2022/12/02 07:53:23;;;;;;;64.67;24.10;;;4.10;99.90;;;;;;5035125;28;20320;-69
2022/12/02 07:55:49;;;;;;;62.00;23.80;;;4.10;99.90;;;;;;5033394;28;20205;-68
2022/12/02 07:58:19;;;;;;;61.70;24.30;;;4.20;99.90;;;;;;5035749;28;20225;-67
2022/12/02 08:00:48;;;;;;;54.23;21.83;;;4.10;99.90;;;;;;5032819;28;20293;-68
2022/12/02 08:03:15;;;;;;;60.40;23.70;;;4.20;99.90;;;;;;5030846;28;20207;-68
2022/12/02 08:05:41;;;;;;;67.37;23.67;;;4.10;99.90;;;;;;5034529;28;20294;-69
2022/12/02 08:08:11;;;;;;;64.17;25.60;;;4.20;99.90;;;;;;5042465;28;20211;-69
2022/12/02 08:10:41;;;;;;;59.17;22.90;;;4.10;99.90;;;;;;5042523;28;20612;-68
2022/12/02 08:13:07;;;;;;;52.87;20.77;;;4.10;99.90;;;;;;5046221;28;20253;-69
2022/12/02 08:15:34;;;;;;;55.60;22.47;;;4.10;99.90;;;;;;5028514;28;20247;-68
2022/12/02 08:18:01;;;;;;;62.87;21.77;;;4.10;99.90;;;;;;5026880;28;20207;-69
2022/12/02 08:20:31;;;;;;;57.80;23.00;;;4.10;99.90;;;;;;5037619;28;20211;-69
2022/12/02 08:22:58;;;;;;;58.00;23.53;;;4.20;99.90;;;;;;5038934;28;20305;-69
2022/12/02 08:25:27;;;;;;;58.97;23.83;;;4.10;99.90;;;;;;5041727;28;20220;-69
2022/12/02 08:27:54;;;;;;;60.30;22.83;;;4.10;99.90;;;;;;5043422;28;20226;-68
2022/12/02 08:30:21;;;;;;;67.57;21.37;;;4.20;99.90;;;;;;5038020;28;20224;-67
2022/12/02 08:32:54;;;;;;;63.70;23.03;;;4.20;99.90;;;;;;5038599;28;20567;-69
2022/12/02 08:35:21;;;;;;;60.30;22.23;;;4.30;99.90;;;;;;5043768;28;20613;-68
2022/12/02 08:37:48;;;;;;;58.87;22.07;;;4.30;99.90;;;;;;5040736;28;20233;-69
2022/12/02 08:40:15;;;;;;;60.40;24.00;;;4.30;99.90;;;;;;5040516;28;20207;-69
2022/12/02 08:42:41;;;;;;;63.37;23.97;;;4.30;99.90;;;;;;5037668;28;20229;-69
2022/12/02 08:45:08;;;;;;;66.03;24.10;;;4.30;99.90;;;;;;5038249;28;20197;-69
2022/12/02 08:47:35;;;;;;;69.77;24.30;;;4.30;99.90;;;;;;5045296;28;20590;-68
2022/12/02 08:50:03;;;;;;;69.40;25.03;;;4.40;99.90;;;;;;5040255;28;20251;-70
2022/12/02 08:52:30;;;;;;;66.30;24.03;;;4.40;99.90;;;;;;5045122;28;20708;-68
2022/12/02 08:54:57;;;;;;;65.70;24.30;;;4.40;99.90;;;;;;5034397;28;20221;-68
2022/12/02 08:57:24;;;;;;;71.30;25.27;;;4.40;99.90;;;;;;5035774;28;20667;-69
2022/12/02 08:59:51;;;;;;;68.10;23.97;;;4.50;99.90;;;;;;5038789;28;20437;-69
2022/12/02 09:02:17;;;;;;;61.00;22.43;;;4.50;99.90;;;;;;5043718;28;20205;-69
2022/12/02 09:04:44;;;;;;;55.90;23.23;;;4.50;99.90;;;;;;5039589;28;20251;-70
2022/12/02 09:07:11;;;;;;;68.87;24.73;;;4.40;99.90;;;;;;5030822;28;20230;-71
2022/12/02 09:09:38;;;;;;;59.20;23.43;;;4.40;99.90;;;;;;5045473;28;20233;-68
2022/12/02 09:12:05;;;;;;;65.57;24.20;;;4.40;99.90;;;;;;5025128;28;20214;-70
2022/12/02 09:14:31;;;;;;;65.17;24.20;;;4.40;99.90;;;;;;5037636;28;20234;-69
2022/12/02 09:16:58;;;;;;;64.60;25.13;;;4.40;99.90;;;;;;5028956;28;20240;-68
2022/12/02 09:19:25;;;;;;;55.83;22.87;;;4.40;99.90;;;;;;5035280;28;20200;-69
2022/12/02 09:21:51;;;;;;;71.67;25.07;;;4.40;99.90;;;;;;5043848;28;20296;-68
2022/12/02 09:24:18;;;;;;;68.23;24.53;;;4.40;99.90;;;;;;5034000;28;20204;-70
2022/12/02 09:26:45;;;;;;;68.73;25.60;;;4.40;99.90;;;;;;5032486;28;20291;-70
2022/12/02 09:29:12;;;;;;;62.90;24.57;;;4.40;99.90;;;;;;5037908;28;20226;-70
2022/12/02 09:31:39;;;;;;;73.60;25.07;;;4.40;99.90;;;;;;5034361;28;20687;-70
2022/12/02 09:34:06;;;;;;;67.17;24.50;;;4.50;99.90;;;;;;5041843;28;20205;-69
2022/12/02 09:36:32;;;;;;;67.63;26.30;;;4.40;99.90;;;;;;5041893;28;20239;-70
2022/12/02 09:38:59;;;;;;;67.73;24.83;;;4.50;99.90;;;;;;5047131;28;20201;-70
2022/12/02 09:41:26;;;;;;;68.37;24.53;;;4.40;99.90;;;;;;5039921;28;20761;-71
2022/12/02 09:43:53;;;;;;;61.53;23.73;;;4.40;99.90;;;;;;5045522;28;20206;-69
2022/12/02 09:46:20;;;;;;;70.20;24.80;;;4.50;99.90;;;;;;5039550;28;20371;-71
2022/12/02 09:48:50;;;;;;;69.63;25.20;;;4.50;99.90;;;;;;5044479;28;20803;-69
2022/12/02 09:51:17;;;;;;;71.57;25.17;;;4.50;99.90;;;;;;5045711;28;20715;-70
2022/12/02 09:53:45;;;;;;;77.47;26.43;;;4.50;99.90;;;;;;5041786;28;20289;-68
2022/12/02 09:56:18;;;;;;;71.87;26.23;;;4.50;99.90;;;;;;5041549;28;20642;-69
2022/12/02 09:58:48;;;;;;;80.43;26.83;;;4.50;99.90;;;;;;5043127;28;20210;-69
2022/12/02 10:01:15;;;;;;;73.20;26.03;;;4.50;99.90;;;;;;5044395;28;20207;-69
2022/12/02 10:03:43;;;;;;;80.17;27.03;;;4.40;99.90;;;;;;5042374;28;20751;-69
2022/12/02 10:06:22;;;;;;;73.50;25.43;;;4.40;99.90;;;;;;5042101;28;20210;-71
2022/12/02 10:08:49;;;;;;;79.03;27.80;;;4.40;99.90;;;;;;5033516;28;20654;-69
2022/12/02 10:11:22;;;;;;;82.17;27.13;;;4.40;99.90;;;;;;5045149;28;20213;-69
2022/12/02 10:13:49;;;;;;;78.90;27.33;;;4.40;99.90;;;;;;5038788;28;20330;-69
2022/12/02 10:16:16;;;;;;;84.40;27.77;;;4.40;99.90;;;;;;5033289;28;20216;-71
2022/12/02 10:18:44;;;;;;;88.93;28.80;;;4.30;99.90;;;;;;5036414;28;20617;-69
2022/12/02 10:21:11;;;;;;;86.17;29.47;;;4.30;99.90;;;;;;5042343;28;20306;-69
2022/12/02 10:23:56;;;;;;;88.97;28.37;;;4.30;99.90;;;;;;5018007;28;20267;-69
2022/12/02 10:26:24;;;;;;;85.97;29.87;;;4.30;99.90;;;;;;5040498;28;20695;-68
2022/12/02 10:29:09;;;;;;;93.60;29.00;;;4.30;99.90;;;;;;5038982;28;20312;-70
2022/12/02 10:31:36;;;;;;;84.47;30.27;;;4.40;99.90;;;;;;5043717;28;20682;-68
2022/12/02 10:34:05;;;;;;;79.37;28.33;;;4.30;99.90;;;;;;5041076;28;20217;-68
2022/12/02 10:36:41;;;;;;;91.10;33.27;;;4.30;99.90;;;;;;5042135;28;20197;-69
2022/12/02 10:39:32;;;;;;;86.57;30.00;;;4.30;99.90;;;;;;5040724;28;20259;-69
2022/12/02 10:42:03;;;;;;;84.47;29.20;;;4.30;99.90;;;;;;5020455;28;20682;-69
2022/12/02 10:44:32;;;;;;;89.83;29.77;;;4.30;99.90;;;;;;5033644;28;20205;-68
2022/12/02 10:47:29;;;;;;;90.43;30.57;;;4.90;99.90;;;;;;5041650;28;20268;-68
2022/12/02 10:49:59;;;;;;;84.00;29.13;;;4.30;99.90;;;;;;5028179;28;20236;-68
2022/12/02 10:52:27;;;;;;;70.00;26.13;;;4.30;99.90;;;;;;5042775;28;20205;-68
2022/12/02 10:54:56;;;;;;;82.33;27.97;;;4.30;99.90;;;;;;5035783;28;20221;-69
2022/12/02 10:57:29;;;;;;;84.10;29.73;;;4.30;99.90;;;;;;5036611;28;20272;-68
2022/12/02 10:59:59;;;;;;;77.70;26.77;;;4.30;99.90;;;;;;5036088;28;20285;-69
2022/12/02 11:02:34;;;;;;;71.40;27.13;;;4.30;99.90;;;;;;5038612;28;20364;-69
2022/12/02 11:05:13;;;;;;;57.50;23.97;;;4.30;99.90;;;;;;5040410;28;20240;-68
2022/12/02 11:07:40;;;;;;;63.77;23.33;;;4.30;99.90;;;;;;5047162;28;20237;-70
2022/12/02 11:10:19;;;;;;;64.80;24.00;;;4.30;99.90;;;;;;5043640;28;20235;-69
2022/12/02 11:12:51;;;;;;;56.43;21.90;;;4.30;99.90;;;;;;5038384;28;20308;-69
2022/12/02 11:15:44;;;;;;;62.97;22.77;;;4.40;99.90;;;;;;5037942;28;20249;-69
2022/12/02 11:18:37;;;;;;;66.87;23.80;;;4.40;99.90;;;;;;5043564;28;20610;-69
2022/12/02 11:21:06;;;;;;;59.60;22.37;;;4.40;99.90;;;;;;5024810;28;20211;-69
2022/12/02 11:23:40;;;;;;;57.63;22.50;;;4.50;99.90;;;;;;5036550;28;20711;-71
2022/12/02 11:26:11;;;;;;;62.07;22.10;;;4.70;99.90;;;;;;5045680;28;20301;-69
2022/12/02 11:29:12;;;;;;;56.07;20.60;;;4.60;99.90;;;;;;5046650;28;20237;-69
2022/12/02 11:31:39;;;;;;;45.53;18.33;;;4.60;99.90;;;;;;5039409;28;20242;-70
2022/12/02 11:34:24;;;;;;;50.70;20.10;;;4.60;99.90;;;;;;5031159;28;20249;-70
2022/12/02 11:37:24;;;;;;;48.43;19.40;;;4.60;99.90;;;;;;5045473;28;20213;-70
2022/12/02 11:39:54;;;;;;;52.93;20.20;;;4.60;99.90;;;;;;5036249;28;20217;-69
2022/12/02 11:42:22;;;;;;;58.07;21.37;;;4.50;99.90;;;;;;5047263;28;20222;-68
2022/12/02 11:44:49;;;;;;;53.53;21.00;;;4.60;99.90;;;;;;5032949;28;20211;-69
2022/12/02 11:47:28;;;;;;;48.70;18.23;;;4.50;99.90;;;;;;5045151;28;20667;-69
2022/12/02 11:50:11;;;;;;;48.00;17.53;;;4.50;99.90;;;;;;5028691;28;20233;-69
2022/12/02 11:52:39;;;;;;;42.43;17.80;;;4.50;99.90;;;;;;5050181;28;20222;-69
2022/12/02 11:55:34;;;;;;;39.67;15.57;;;4.40;99.90;;;;;;5049363;28;20623;-69
2022/12/02 11:58:03;;;;;;;40.53;14.90;;;4.40;99.90;;;;;;5044781;28;20249;-70
2022/12/02 12:00:31;;;;;;;42.67;16.67;;;4.40;99.90;;;;;;5037072;28;20816;-68
2022/12/02 12:03:17;;;;;;;33.23;13.80;;;4.40;99.90;;;;;;5057206;28;20214;-71
2022/12/02 12:06:14;;;;;;;42.30;16.03;;;4.40;99.90;;;;;;5063014;28;20201;-69
2022/12/02 12:08:47;;;;;;;37.97;13.33;;;4.40;99.90;;;;;;5030647;28;20681;-69
2022/12/02 12:11:27;;;;;;;35.00;13.40;;;4.40;99.90;;;;;;5046171;28;20241;-69
2022/12/02 12:14:11;;;;;;;38.23;14.00;;;4.40;99.90;;;;;;5041336;28;20578;-68
2022/12/02 12:16:45;;;;;;;32.33;13.57;;;4.50;99.90;;;;;;5053830;28;20291;-68
2022/12/02 12:19:12;;;;;;;36.60;13.87;;;4.50;99.90;;;;;;5043964;28;20933;-70
2022/12/02 12:21:44;;;;;;;33.77;13.67;;;4.50;99.90;;;;;;5047636;28;20198;-68
2022/12/02 12:24:32;;;;;;;30.47;12.83;;;4.50;99.90;;;;;;5048184;28;20636;-69
2022/12/02 12:27:01;;;;;;;30.80;13.03;;;4.50;99.90;;;;;;5044779;28;20262;-69
2022/12/02 12:29:39;;;;;;;33.73;14.27;;;4.50;99.90;;;;;;5049373;28;20755;-69
2022/12/02 12:32:07;;;;;;;28.50;11.83;;;4.50;99.90;;;;;;5041103;28;20212;-69
2022/12/02 12:34:36;;;;;;;28.50;12.20;;;4.50;99.90;;;;;;5048991;28;20607;-68
2022/12/02 12:37:03;;;;;;;26.00;11.70;;;4.60;99.90;;;;;;5048013;28;20263;-69
2022/12/02 12:40:01;;;;;;;23.07;10.73;;;4.40;99.90;;;;;;5029991;28;20206;-68
2022/12/02 12:42:27;;;;;;;22.00;10.17;;;4.40;99.90;;;;;;5037086;28;20227;-69
2022/12/02 12:44:54;;;;;;;29.00;12.47;;;4.30;99.90;;;;;;5039426;28;20206;-69
2022/12/02 12:47:21;;;;;;;24.63;10.57;;;4.30;99.90;;;;;;5041410;28;20283;-69
2022/12/02 12:49:48;;;;;;;27.30;11.10;;;4.30;99.90;;;;;;5046285;28;20253;-69
2022/12/02 12:52:15;;;;;;;31.80;11.93;;;4.20;99.90;;;;;;5029027;28;20237;-70
2022/12/02 12:54:41;;;;;;;29.73;11.50;;;4.10;99.90;;;;;;5041891;28;20605;-69